Time;durP1;ratioP1;P1;durP2;ratioP2;P2;SDS_P1;SDS_P2;PMS_P1;PMS_P2;Temp;Humidity;BMP_temperature;BMP_pressure;BME280_temperature;BME280_humidity;BME280_pressure;Samples;Min_cycle;Max_cycle;Signal;HPM_P1;HPM_P2
2022/06/16 00:02:14;;;;;;;10.10;3.23;;;;;;;19.34;100.00;96473.00;5013172;28;20215;-84
2022/06/16 00:04:46;;;;;;;12.90;3.33;;;;;;;19.25;100.00;96463.75;5017690;28;20202;-84
2022/06/16 00:07:15;;;;;;;8.70;2.80;;;;;;;19.14;100.00;96448.50;5013766;28;20215;-84
2022/06/16 00:09:42;;;;;;;8.57;3.33;;;;;;;18.99;100.00;96449.38;5009803;28;20208;-84
2022/06/16 00:12:10;;;;;;;6.67;2.90;;;;;;;18.86;100.00;96439.06;5024804;28;20210;-84
2022/06/16 00:14:37;;;;;;;11.17;3.33;;;;;;;18.93;100.00;96439.56;5012147;28;20206;-83
2022/06/16 00:17:05;;;;;;;5.73;2.93;;;;;;;18.98;100.00;96439.53;5008680;28;20239;-84
2022/06/16 00:19:32;;;;;;;9.27;3.77;;;;;;;18.93;100.00;96427.81;5011222;28;20230;-84
2022/06/16 00:22:00;;;;;;;11.97;3.40;;;;;;;18.96;100.00;96432.72;5007922;28;20260;-84
2022/06/16 00:24:28;;;;;;;10.33;3.50;;;;;;;19.01;100.00;96417.09;5008256;28;20215;-84
2022/06/16 00:26:57;;;;;;;10.17;2.90;;;;;;;19.10;100.00;96414.59;5009841;28;20215;-84
2022/06/16 00:29:25;;;;;;;6.33;3.30;;;;;;;19.26;100.00;96419.69;4998566;28;20275;-84
2022/06/16 00:31:52;;;;;;;9.00;3.73;;;;;;;19.39;100.00;96420.97;5008057;28;20249;-84
2022/06/16 00:34:19;;;;;;;9.70;3.17;;;;;;;19.46;100.00;96410.53;5011595;28;20214;-84
2022/06/16 00:36:46;;;;;;;12.17;3.23;;;;;;;19.50;100.00;96408.03;5006804;28;20218;-83
2022/06/16 00:39:14;;;;;;;11.00;3.30;;;;;;;19.35;100.00;96406.22;5011669;28;20213;-83
2022/06/16 00:41:42;;;;;;;7.37;3.20;;;;;;;19.21;100.00;96413.44;5009250;28;20231;-83
2022/06/16 00:44:19;;;;;;;7.63;3.23;;;;;;;19.16;100.00;96414.25;5007747;28;20203;-84
2022/06/16 00:46:46;;;;;;;11.77;3.17;;;;;;;19.10;100.00;96409.09;5011750;28;20253;-83
2022/06/16 00:49:14;;;;;;;9.93;3.03;;;;;;;19.05;100.00;96409.16;5011829;28;20245;-84
2022/06/16 00:51:45;;;;;;;8.27;2.80;;;;;;;19.06;100.00;96399.81;5017828;28;20289;-84
2022/06/16 00:54:17;;;;;;;11.37;3.73;;;;;;;19.16;100.00;96388.81;5005464;28;20216;-84
2022/06/16 00:56:45;;;;;;;8.53;3.20;;;;;;;19.34;100.00;96384.59;5006626;28;20250;-84
2022/06/16 00:59:12;;;;;;;14.17;3.20;;;;;;;19.58;99.87;96380.03;5005995;28;20271;-84
2022/06/16 01:01:42;;;;;;;16.87;3.63;;;;;;;19.49;100.00;96385.31;5015432;28;20227;-84
2022/06/16 01:06:55;;;;;;;8.57;3.00;;;;;;;19.12;100.00;96388.56;5008519;28;20214;-84
2022/06/16 01:09:26;;;;;;;8.23;2.80;;;;;;;19.10;100.00;96376.25;5009869;28;20199;-84
2022/06/16 01:15:05;;;;;;;6.17;3.23;;;;;;;19.09;100.00;96393.78;5023780;28;20281;-84
2022/06/16 01:17:46;;;;;;;5.73;2.70;;;;;;;19.14;100.00;96385.56;5011455;28;20230;-84
2022/06/16 01:20:25;;;;;;;9.00;3.17;;;;;;;19.18;100.00;96381.13;4995295;28;20234;-84
2022/06/16 01:23:14;;;;;;;7.43;3.00;;;;;;;19.21;100.00;96369.63;5007087;28;20199;-84
2022/06/16 01:25:54;;;;;;;10.73;3.53;;;;;;;19.25;100.00;96351.53;5013436;28;20207;-84
2022/06/16 01:28:27;;;;;;;6.23;3.20;;;;;;;19.29;100.00;96349.88;5013160;28;20241;-84
2022/06/16 01:31:03;;;;;;;10.07;3.25;;;;;;;19.25;100.00;96326.88;5008251;28;20605;-84
2022/06/16 01:33:39;;;;;;;10.77;3.30;;;;;;;19.26;100.00;96328.53;5008549;28;20206;-84
2022/06/16 01:36:15;;;;;;;7.22;3.10;;;;;;;19.29;100.00;96327.97;5015619;28;20207;-84
2022/06/16 01:38:48;;;;;;;8.82;3.45;;;;;;;19.33;98.85;96342.69;5015292;28;20202;-84
2022/06/16 01:41:24;;;;;;;8.52;3.05;;;;;;;19.37;99.70;96346.50;5016815;28;20261;-84
2022/06/16 01:44:02;;;;;;;7.38;3.03;;;;;;;19.37;99.31;96329.25;5019067;28;20212;-84
2022/06/16 01:46:34;;;;;;;7.70;3.28;;;;;;;19.39;97.96;96324.31;5006408;28;20233;-84
2022/06/16 01:49:15;;;;;;;7.30;2.88;;;;;;;19.32;97.96;96327.38;5003915;28;20238;-84
2022/06/16 01:51:46;;;;;;;10.33;3.13;;;;;;;19.33;98.23;96326.25;5003333;28;20235;-84
2022/06/16 01:54:19;;;;;;;9.10;3.40;;;;;;;19.34;96.83;96322.44;5009468;28;20247;-84
2022/06/16 01:56:51;;;;;;;8.43;3.13;;;;;;;19.40;96.73;96320.47;4997081;28;20252;-84
2022/06/16 01:59:23;;;;;;;9.07;3.03;;;;;;;19.42;96.37;96327.28;5003657;28;20301;-84
2022/06/16 02:01:58;;;;;;;7.23;3.07;;;;;;;19.43;96.40;96323.44;5007893;28;20225;-84
2022/06/16 02:04:31;;;;;;;6.68;3.05;;;;;;;19.43;95.91;96325.38;5008872;28;20214;-84
2022/06/16 02:07:03;;;;;;;8.85;2.83;;;;;;;19.67;86.58;96320.78;5008388;28;20203;-84
2022/06/16 02:09:35;;;;;;;7.18;2.85;;;;;;;20.13;82.38;96314.84;5028034;28;20207;-84
2022/06/16 02:12:08;;;;;;;8.35;3.03;;;;;;;20.45;81.81;96317.78;5013215;28;20294;-86
2022/06/16 02:14:42;;;;;;;12.35;3.00;;;;;;;20.30;85.71;96321.50;5007609;28;20218;-84
2022/06/16 02:17:24;;;;;;;8.70;3.30;;;;;;;20.20;87.98;96326.28;5011283;28;20231;-84
2022/06/16 02:19:51;;;;;;;7.32;3.10;;;;;;;20.10;87.93;96326.38;5021729;28;20221;-84
2022/06/16 02:22:18;;;;;;;10.68;3.13;;;;;;;19.99;88.42;96311.97;5003899;28;20196;-84
2022/06/16 02:24:48;;;;;;;11.80;3.60;;;;;;;19.94;89.44;96314.78;5012303;28;20281;-85
2022/06/16 02:27:15;;;;;;;10.60;3.08;;;;;;;19.89;87.10;96312.09;4996005;28;20211;-85
2022/06/16 02:29:43;;;;;;;10.40;3.17;;;;;;;19.98;85.27;96310.38;5004721;28;20273;-85
2022/06/16 02:32:37;;;;;;;9.55;3.13;;;;;;;20.01;85.90;96324.28;5021479;28;20199;-84
2022/06/16 02:35:17;;;;;;;7.65;3.15;;;;;;;20.00;88.77;96321.81;5015254;28;20226;-84
2022/06/16 02:38:01;;;;;;;6.60;2.30;;;;;;;19.94;87.11;96328.47;5004792;28;20206;-84
2022/06/16 02:40:40;;;;;;;9.32;3.00;;;;;;;19.99;87.08;96331.16;5016757;28;20223;-84
2022/06/16 02:43:21;;;;;;;10.38;2.92;;;;;;;19.95;87.87;96335.59;5003529;28;20217;-84
2022/06/16 02:46:01;;;;;;;7.05;3.15;;;;;;;19.92;89.16;96341.66;5008148;28;20226;-85
2022/06/16 02:48:38;;;;;;;6.65;2.80;;;;;;;19.92;90.43;96349.88;5007171;28;20241;-84
2022/06/16 02:51:09;;;;;;;10.05;3.03;;;;;;;19.88;91.23;96348.81;5009500;28;20240;-84
2022/06/16 02:53:49;;;;;;;9.32;3.22;;;;;;;19.85;91.26;96363.09;5007443;28;20266;-84
2022/06/16 02:56:24;;;;;;;7.75;3.00;;;;;;;19.90;95.02;96365.81;5007874;28;20198;-84
2022/06/16 02:58:55;;;;;;;7.05;2.88;;;;;;;19.78;95.38;96349.75;5010951;28;20206;-84
2022/06/16 03:01:24;;;;;;;5.68;2.92;;;;;;;19.69;95.70;96326.00;5014622;28;20232;-84
2022/06/16 03:04:04;;;;;;;10.38;3.97;;;;;;;19.61;93.09;96314.56;5024144;28;20202;-84
2022/06/16 03:06:32;;;;;;;9.20;3.10;;;;;;;19.54;94.58;96326.97;5011155;28;20217;-84
2022/06/16 03:08:59;;;;;;;7.78;3.05;;;;;;;19.52;95.86;96323.69;4992969;28;20207;-84
2022/06/16 03:11:27;;;;;;;11.07;3.75;;;;;;;19.42;96.01;96332.75;5004183;28;20208;-84
2022/06/16 03:13:55;;;;;;;11.10;3.92;;;;;;;19.29;96.77;96336.16;5003449;28;20211;-85
2022/06/16 03:16:28;;;;;;;6.43;3.30;;;;;;;19.24;98.03;96336.19;5006634;28;20223;-84
2022/06/16 03:18:57;;;;;;;7.72;3.97;;;;;;;19.18;99.13;96342.81;4999376;28;20218;-84
2022/06/16 03:21:26;;;;;;;12.75;3.60;;;;;;;19.10;97.88;96348.91;5023892;28;20317;-85
2022/06/16 03:23:53;;;;;;;11.73;3.53;;;;;;;19.09;98.71;96341.78;5010909;28;20202;-84
2022/06/16 03:26:21;;;;;;;7.60;3.10;;;;;;;19.07;98.45;96343.97;5013084;28;20395;-84
2022/06/16 03:28:49;;;;;;;6.50;3.47;;;;;;;19.13;98.08;96342.88;5007984;28;20211;-85
2022/06/16 03:31:18;;;;;;;8.73;3.00;;;;;;;19.12;96.48;96333.00;5018814;28;20199;-84
2022/06/16 03:33:45;;;;;;;8.05;3.60;;;;;;;19.16;98.25;96328.59;5011404;28;20294;-85
2022/06/16 03:36:13;;;;;;;7.43;2.95;;;;;;;19.20;95.67;96329.66;5013985;28;20207;-85
2022/06/16 03:38:43;;;;;;;6.30;2.58;;;;;;;19.18;95.24;96327.22;5013423;28;20555;-85
2022/06/16 03:41:13;;;;;;;13.82;3.30;;;;;;;19.20;95.92;96329.66;5011810;28;20250;-85
2022/06/16 03:43:43;;;;;;;8.50;3.00;;;;;;;19.16;97.67;96342.28;5018272;28;20207;-85
2022/06/16 03:46:14;;;;;;;9.17;4.00;;;;;;;18.88;100.00;96328.22;5010551;28;20203;-84
2022/06/16 03:48:46;;;;;;;8.33;3.27;;;;;;;18.85;100.00;96326.06;5012748;28;20238;-84
2022/06/16 03:51:16;;;;;;;9.53;3.60;;;;;;;18.90;98.95;96323.28;5020672;28;20278;-85
2022/06/16 03:53:44;;;;;;;11.53;3.33;;;;;;;18.92;99.77;96324.94;4999709;28;20199;-84
2022/06/16 03:56:13;;;;;;;8.67;3.20;;;;;;;18.82;100.00;96323.91;5023745;28;20210;-84
2022/06/16 03:58:40;;;;;;;6.00;3.30;;;;;;;18.82;99.20;96329.38;5005282;28;20200;-84
2022/06/16 04:01:08;;;;;;;6.47;3.43;;;;;;;18.87;96.67;96336.75;5010190;28;20242;-85
2022/06/16 04:06:21;;;;;;;7.50;3.03;;;;;;;18.80;100.00;96330.75;5005170;28;20271;-84
2022/06/16 04:08:51;;;;;;;11.93;3.33;;;;;;;18.86;100.00;96324.97;5014704;28;20530;-85
2022/06/16 04:11:28;;;;;;;11.37;3.30;;;;;;;18.98;97.15;96326.53;5006298;28;20208;-85
2022/06/16 04:14:00;;;;;;;10.63;3.50;;;;;;;19.08;95.31;96327.28;5009537;28;20214;-85
2022/06/16 04:16:29;;;;;;;11.93;3.40;;;;;;;19.07;95.33;96327.56;5012868;28;20302;-85
2022/06/16 04:18:56;;;;;;;10.93;3.10;;;;;;;19.14;95.11;96330.81;5012681;28;20252;-84
2022/06/16 04:21:24;;;;;;;10.47;3.47;;;;;;;19.15;94.06;96326.94;5006716;28;20221;-85
2022/06/16 04:24:13;;;;;;;9.82;3.38;;;;;;;19.19;94.41;96333.50;5010972;28;20651;-85
2022/06/16 04:26:42;;;;;;;7.88;3.35;;;;;;;19.25;93.83;96346.88;5002947;28;20218;-84
2022/06/16 04:29:10;;;;;;;8.95;3.03;;;;;;;19.25;95.55;96368.75;5004510;28;20207;-84
2022/06/16 04:31:38;;;;;;;9.77;3.40;;;;;;;19.23;95.11;96383.81;5019270;28;20206;-85
2022/06/16 04:34:06;;;;;;;11.27;3.65;;;;;;;19.29;96.32;96393.66;5004830;28;20203;-84
2022/06/16 04:36:38;;;;;;;9.23;3.63;;;;;;;19.18;96.50;96389.34;5008285;28;20218;-85
2022/06/16 04:39:13;;;;;;;9.13;3.65;;;;;;;19.14;97.35;96396.50;5018028;28;20226;-85
2022/06/16 04:41:44;;;;;;;9.40;3.50;;;;;;;19.04;98.40;96389.19;5008724;28;20227;-84
2022/06/16 04:44:14;;;;;;;9.90;3.95;;;;;;;19.05;98.81;96396.28;5002858;28;20211;-85
2022/06/16 04:46:44;;;;;;;6.82;3.45;;;;;;;19.08;99.35;96392.16;5007400;28;20219;-85
2022/06/16 04:49:12;;;;;;;8.05;3.88;;;;;;;19.15;98.02;96400.84;5009857;28;20251;-84
2022/06/16 04:51:45;;;;;;;6.97;3.40;;;;;;;19.17;96.79;96404.13;5010157;28;20261;-85
2022/06/16 04:54:15;;;;;;;10.10;3.95;;;;;;;19.33;96.99;96418.53;5003687;28;20241;-84
2022/06/16 04:56:48;;;;;;;7.95;3.60;;;;;;;19.34;99.98;96412.78;5009413;28;20248;-85
2022/06/16 04:59:34;;;;;;;8.35;3.83;;;;;;;19.34;100.00;96411.97;5018215;28;20214;-85
2022/06/16 05:02:23;;;;;;;10.90;3.70;;;;;;;19.36;100.00;96410.59;5009181;28;20234;-84
2022/06/16 05:05:05;;;;;;;9.30;3.92;;;;;;;19.36;99.39;96413.31;5010120;28;20226;-84
2022/06/16 05:07:59;;;;;;;7.72;4.00;;;;;;;19.43;99.76;96427.50;5018418;28;20218;-84
2022/06/16 05:10:48;;;;;;;8.05;3.53;;;;;;;19.33;98.91;96416.63;5005158;28;20207;-85
2022/06/16 05:13:36;;;;;;;10.23;3.58;;;;;;;19.40;99.09;96410.81;5025464;28;20214;-80
2022/06/16 05:16:18;;;;;;;7.15;3.40;;;;;;;19.45;99.52;96413.53;5008761;28;20222;-81
2022/06/16 05:19:04;;;;;;;9.23;4.50;;;;;;;19.45;97.62;96419.84;5022128;28;20262;-80
2022/06/16 05:22:01;;;;;;;10.90;3.55;;;;;;;19.46;99.42;96410.53;5001837;28;20227;-80
2022/06/16 05:24:46;;;;;;;7.50;3.10;;;;;;;19.38;100.00;96408.38;5026059;28;20264;-80
2022/06/16 05:27:38;;;;;;;10.03;3.53;;;;;;;19.38;98.76;96397.44;4980329;28;20221;-81
2022/06/16 05:30:23;;;;;;;8.43;3.37;;;;;;;19.46;99.84;96410.53;5019488;28;20210;-81
2022/06/16 05:33:05;;;;;;;8.90;3.65;;;;;;;19.57;99.68;96433.19;5003726;28;20204;-81
2022/06/16 05:35:56;;;;;;;8.57;3.90;;;;;;;19.67;99.91;96438.59;5010532;28;20218;-81
2022/06/16 05:38:58;;;;;;;6.45;2.97;;;;;;;19.71;94.39;96417.75;4962702;28;20209;-83
2022/06/16 05:41:32;;;;;;;15.70;3.83;;;;;;;19.82;91.22;96416.53;4999390;28;20219;-83
2022/06/16 05:44:10;;;;;;;10.05;3.50;;;;;;;19.98;94.21;96415.31;5013150;28;20399;-83
2022/06/16 05:46:48;;;;;;;8.45;2.97;;;;;;;20.04;94.98;96421.56;5001460;28;20218;-81
2022/06/16 05:49:16;;;;;;;11.65;3.10;;;;;;;19.95;96.15;96423.28;5004915;28;20235;-82
2022/06/16 05:51:45;;;;;;;10.63;3.42;;;;;;;19.98;96.33;96439.19;5009443;28;20195;-82
2022/06/16 05:54:16;;;;;;;10.90;3.65;;;;;;;19.95;97.90;96439.75;4999318;28;20230;-82
2022/06/16 05:56:45;;;;;;;7.47;2.88;;;;;;;19.92;98.94;96441.13;5009156;28;20209;-82
2022/06/16 05:59:14;;;;;;;10.52;3.67;;;;;;;19.87;97.87;96429.41;5021228;28;20207;-84
2022/06/16 06:01:47;;;;;;;7.10;3.25;;;;;;;19.82;98.08;96432.97;5015242;28;20231;-84
2022/06/16 06:04:14;;;;;;;10.55;3.58;;;;;;;19.86;99.55;96436.78;5010287;28;20228;-84
2022/06/16 06:06:44;;;;;;;5.43;3.33;;;;;;;19.84;100.00;96433.53;5012286;28;20607;-84
2022/06/16 06:17:37;;;;;;;8.23;3.05;;;;;;;19.98;100.00;96433.69;5001962;28;20257;-84
2022/06/16 06:20:05;;;;;;;10.75;3.60;;;;;;;19.99;99.77;96440.78;4999656;28;20206;-84
2022/06/16 06:22:32;;;;;;;9.55;3.33;;;;;;;20.09;100.00;96440.69;5010892;28;20225;-84
2022/06/16 06:25:09;;;;;;;7.45;3.10;;;;;;;20.05;100.00;96438.84;5003301;28;20202;-84
2022/06/16 06:27:39;;;;;;;6.25;3.22;;;;;;;19.95;100.00;96439.75;4999970;28;20302;-84
2022/06/16 06:30:12;;;;;;;11.30;3.55;;;;;;;19.99;100.00;96436.13;5014528;28;20195;-84
2022/06/16 06:32:39;;;;;;;10.38;3.45;;;;;;;20.01;100.00;96424.88;5013899;28;20222;-84
2022/06/16 06:35:07;;;;;;;9.55;3.92;;;;;;;20.05;100.00;96434.16;5020694;28;20211;-84
2022/06/16 06:37:35;;;;;;;9.57;3.75;;;;;;;20.20;100.00;96458.69;5016854;28;20210;-85
2022/06/16 06:40:02;;;;;;;12.77;3.83;;;;;;;20.38;100.00;96447.03;5011974;28;20207;-84
2022/06/16 06:42:29;;;;;;;8.18;3.58;;;;;;;20.43;100.00;96439.84;5013344;28;20241;-84
2022/06/16 06:44:57;;;;;;;9.25;3.85;;;;;;;20.28;100.00;96449.84;5023233;28;20214;-85
2022/06/16 06:47:27;;;;;;;11.63;3.70;;;;;;;20.36;100.00;96431.97;5015186;28;20199;-85
2022/06/16 06:49:55;;;;;;;11.40;3.78;;;;;;;20.34;100.00;96437.72;4999680;28;20269;-84
2022/06/16 06:52:22;;;;;;;9.95;3.63;;;;;;;20.34;100.00;96437.72;5009480;28;20222;-84
2022/06/16 06:54:50;;;;;;;15.77;4.32;;;;;;;20.21;100.00;96446.63;5007628;28;20306;-84
2022/06/16 06:57:21;;;;;;;9.63;4.15;;;;;;;20.20;100.00;96458.69;5015121;28;20205;-84
2022/06/16 06:59:49;;;;;;;8.30;3.58;;;;;;;20.19;100.00;96486.41;5023148;28;20293;-84
2022/06/16 07:02:17;;;;;;;12.98;3.72;;;;;;;20.00;100.00;96500.78;5022788;28;20222;-84
2022/06/16 07:04:46;;;;;;;12.38;3.88;;;;;;;19.98;100.00;96510.44;5007535;28;20292;-84
2022/06/16 07:07:17;;;;;;;15.50;4.38;;;;;;;19.96;100.00;96521.69;5017814;28;20222;-84
2022/06/16 07:09:45;;;;;;;11.68;3.97;;;;;;;19.98;100.00;96522.22;5017454;28;20275;-84
2022/06/16 07:12:14;;;;;;;15.82;5.35;;;;;;;19.98;100.00;96535.09;5015817;28;20266;-84
2022/06/16 07:14:41;;;;;;;20.80;6.30;;;;;;;19.90;100.00;96522.00;5006278;28;20316;-83
2022/06/16 07:17:08;;;;;;;10.52;4.35;;;;;;;19.90;100.00;96531.03;5006067;28;20219;-82
2022/06/16 07:19:36;;;;;;;17.75;4.70;;;;;;;19.72;100.00;96531.72;5002934;28;20195;-82
2022/06/16 07:22:05;;;;;;;13.10;4.55;;;;;;;19.57;100.00;96534.53;5017269;28;20376;-83
2022/06/16 07:24:33;;;;;;;11.75;4.22;;;;;;;19.48;100.00;96539.78;5013421;28;20210;-83
2022/06/16 07:27:01;;;;;;;10.90;4.47;;;;;;;19.49;100.00;96546.91;5025648;28;20207;-83
2022/06/16 07:29:29;;;;;;;14.30;4.40;;;;;;;19.43;100.00;96548.00;5033514;28;20214;-83
2022/06/16 07:31:57;;;;;;;8.88;4.35;;;;;;;19.30;100.00;96545.88;5015234;28;20202;-83
2022/06/16 07:34:25;;;;;;;10.73;4.43;;;;;;;19.07;100.00;96538.28;5002841;28;20298;-83
2022/06/16 07:36:52;;;;;;;10.77;4.93;;;;;;;19.14;100.00;96533.38;5009093;28;20199;-82
2022/06/16 07:39:20;;;;;;;9.82;4.70;;;;;;;19.24;100.00;96525.09;5006651;28;20346;-82
2022/06/16 07:41:48;;;;;;;13.75;4.55;;;;;;;19.35;100.00;96523.13;5015918;28;20222;-83
2022/06/16 07:44:17;;;;;;;10.77;4.68;;;;;;;19.56;100.00;96539.19;5024469;28;20211;-83
2022/06/16 07:46:46;;;;;;;9.32;5.18;;;;;;;19.67;100.00;96561.88;5004424;28;20218;-83
2022/06/16 07:49:16;;;;;;;11.82;4.35;;;;;;;19.61;100.00;96574.78;5016125;28;20296;-83
2022/06/16 07:51:43;;;;;;;12.45;4.35;;;;;;;19.48;100.00;96564.44;5030366;28;20301;-83
2022/06/16 07:54:12;;;;;;;10.88;4.50;;;;;;;19.43;100.00;96564.44;5013839;28;20209;-83
2022/06/16 07:56:40;;;;;;;14.00;5.55;;;;;;;19.38;100.00;96559.00;5005265;28;20219;-83
2022/06/16 07:59:07;;;;;;;15.93;6.03;;;;;;;19.27;100.00;96560.13;5014507;28;20214;-83
2022/06/16 08:01:34;;;;;;;9.95;5.38;;;;;;;19.16;100.00;96558.50;5003115;28;20256;-83
2022/06/16 08:04:05;;;;;;;12.05;5.20;;;;;;;19.04;100.00;96555.28;5016463;28;20231;-83
2022/06/16 08:06:35;;;;;;;16.17;5.40;;;;;;;18.99;100.00;96556.09;4995388;28;20334;-83
2022/06/16 08:09:03;;;;;;;10.10;5.00;;;;;;;19.05;100.00;96540.50;5010960;28;20211;-83
2022/06/16 08:14:17;;;;;;;10.63;4.78;;;;;;;19.81;100.00;96548.38;5010340;28;20211;-83
2022/06/16 08:16:44;;;;;;;12.73;5.47;;;;;;;20.02;100.00;96547.94;4999500;28;20238;-83
2022/06/16 08:19:12;;;;;;;14.10;4.60;;;;;;;20.03;100.00;96549.56;5011077;28;20211;-82
2022/06/16 08:21:39;;;;;;;10.95;4.50;;;;;;;20.16;100.00;96556.31;5000097;28;20210;-82
2022/06/16 08:24:06;;;;;;;14.65;4.38;;;;;;;20.15;100.00;96551.97;5028438;28;20203;-83
2022/06/16 08:26:36;;;;;;;12.27;4.47;;;;;;;20.23;100.00;96559.56;5006702;28;20203;-82
2022/06/16 08:29:06;;;;;;;13.95;4.80;;;;;;;20.11;100.00;96550.88;5011113;28;20203;-83
2022/06/16 08:31:34;;;;;;;16.63;4.82;;;;;;;20.12;100.00;96562.66;5010115;28;20239;-83
2022/06/16 08:34:01;;;;;;;11.40;4.47;;;;;;;19.91;100.00;96564.72;5012732;28;20269;-82
2022/06/16 08:36:28;;;;;;;8.95;4.32;;;;;;;19.86;100.00;96560.09;5001141;28;20222;-82
2022/06/16 08:38:56;;;;;;;10.27;5.32;;;;;;;19.85;100.00;96560.38;5010365;28;20219;-82
2022/06/16 08:41:28;;;;;;;11.90;5.18;;;;;;;19.92;100.00;96563.63;4997290;28;20279;-82
2022/06/16 08:44:08;;;;;;;9.90;5.32;;;;;;;19.88;100.00;96554.34;5018137;28;20219;-82
2022/06/16 08:46:41;;;;;;;18.48;5.70;;;;;;;19.95;100.00;96557.59;5010866;28;20269;-82
2022/06/16 08:49:19;;;;;;;12.40;5.15;;;;;;;20.14;100.00;96558.56;5011982;28;20239;-82
2022/06/16 08:51:59;;;;;;;8.13;4.50;;;;;;;20.51;100.00;96552.50;5015012;28;20309;-82
2022/06/16 08:54:44;;;;;;;14.45;5.00;;;;;;;20.72;100.00;96564.09;5012403;28;20285;-82
2022/06/16 08:57:16;;;;;;;12.43;5.00;;;;;;;20.86;100.00;96581.50;5008451;28;20218;-82
2022/06/16 08:59:53;;;;;;;13.50;4.97;;;;;;;20.91;100.00;96577.91;5004187;28;20241;-83
2022/06/16 09:02:28;;;;;;;13.25;4.75;;;;;;;20.83;100.00;96571.13;5019547;28;20218;-82
2022/06/16 09:05:05;;;;;;;9.23;4.00;;;;;;;20.76;100.00;96576.94;4999173;28;20213;-83
2022/06/16 09:07:45;;;;;;;13.90;5.07;;;;;;;20.62;100.00;96570.50;5013831;28;20198;-83
2022/06/16 09:10:30;;;;;;;12.43;5.10;;;;;;;20.68;100.00;96580.31;5006734;28;20217;-83
2022/06/16 09:13:19;;;;;;;11.88;5.00;;;;;;;20.83;100.00;96586.78;5009567;28;20203;-83
2022/06/16 09:15:57;;;;;;;14.07;5.30;;;;;;;20.93;100.00;96584.72;4968926;28;20223;-83
2022/06/16 09:18:46;;;;;;;10.35;5.07;;;;;;;21.07;100.00;96577.47;4999497;28;20211;-83
2022/06/16 09:21:22;;;;;;;10.88;5.35;;;;;;;21.30;100.00;96575.03;5000396;28;20223;-83
2022/06/16 09:24:05;;;;;;;13.73;5.22;;;;;;;21.35;100.00;96574.97;5001552;28;20233;-83
2022/06/16 09:26:38;;;;;;;10.15;4.88;;;;;;;21.31;100.00;96582.16;5019413;28;20215;-83
2022/06/16 09:29:08;;;;;;;11.10;4.97;;;;;;;21.32;100.00;96579.13;5011495;28;20230;-83
2022/06/16 09:31:41;;;;;;;15.15;5.10;;;;;;;21.31;100.00;96582.16;5011401;28;20302;-82
2022/06/16 09:34:13;;;;;;;12.07;4.72;;;;;;;21.35;100.00;96589.50;4995452;28;20208;-83
2022/06/16 09:36:46;;;;;;;10.60;4.90;;;;;;;21.56;100.00;96579.09;5008892;28;20288;-83
2022/06/16 09:39:21;;;;;;;10.25;4.65;;;;;;;21.54;100.00;96575.81;5009979;28;20299;-83
2022/06/16 09:44:48;;;;;;;12.85;5.53;;;;;;;21.63;100.00;96574.06;5014589;28;20230;-83
2022/06/16 09:47:21;;;;;;;10.20;4.90;;;;;;;21.68;100.00;96568.50;5019198;28;20214;-83
2022/06/16 09:49:54;;;;;;;7.78;4.40;;;;;;;21.93;100.00;96574.75;4996974;28;20227;-84
2022/06/16 09:52:27;;;;;;;11.98;4.63;;;;;;;22.13;100.00;96582.72;5019425;28;20207;-83
2022/06/16 09:55:01;;;;;;;16.05;5.38;;;;;;;22.23;100.00;96574.31;5010945;28;20207;-84
2022/06/16 09:57:35;;;;;;;9.70;4.97;;;;;;;22.36;100.00;96570.81;5004866;28;20211;-83
2022/06/16 10:00:07;;;;;;;9.27;4.50;;;;;;;22.49;100.00;96574.72;5005982;28;20219;-84
2022/06/16 10:02:42;;;;;;;13.20;4.93;;;;;;;22.55;100.00;96582.59;5019720;28;20288;-83
2022/06/16 10:05:16;;;;;;;13.82;5.07;;;;;;;22.48;100.00;96578.59;4996856;28;20207;-83
2022/06/16 10:07:49;;;;;;;11.40;5.38;;;;;;;22.36;100.00;96581.81;5011670;28;20292;-83
2022/06/16 10:10:21;;;;;;;13.07;6.05;;;;;;;22.30;100.00;96579.44;4994684;28;20203;-83
2022/06/16 10:12:57;;;;;;;10.05;5.50;;;;;;;22.23;100.00;96582.56;5022533;28;20214;-83
2022/06/16 10:15:30;;;;;;;10.70;5.20;;;;;;;22.29;100.00;96577.81;5007243;28;20219;-83
2022/06/16 10:17:59;;;;;;;10.27;5.32;;;;;;;22.63;100.00;96579.16;5004285;28;20222;-83
2022/06/16 10:20:29;;;;;;;10.57;5.07;;;;;;;22.97;100.00;96569.75;5008407;28;20212;-83
2022/06/16 10:23:02;;;;;;;14.75;5.88;;;;;;;23.03;100.00;96574.06;4996849;28;20272;-83
2022/06/16 10:25:35;;;;;;;12.50;4.82;;;;;;;23.10;100.00;96568.97;5009171;28;20245;-83
2022/06/16 10:28:19;;;;;;;11.13;4.75;;;;;;;23.33;100.00;96570.72;5013561;28;20211;-83
2022/06/16 10:30:46;;;;;;;10.52;4.70;;;;;;;23.68;100.00;96568.38;5007131;28;20206;-83
2022/06/16 10:33:19;;;;;;;11.85;5.10;;;;;;;23.81;100.00;96567.56;5010123;28;20207;-83
2022/06/16 10:35:51;;;;;;;12.70;5.10;;;;;;;23.93;100.00;96556.78;5005973;28;20269;-83
2022/06/16 10:38:29;;;;;;;9.48;5.10;;;;;;;24.07;100.00;96568.59;5006536;28;20208;-82
2022/06/16 10:40:58;;;;;;;9.60;5.80;;;;;;;24.27;100.00;96559.06;5022936;28;20207;-83
2022/06/16 10:43:26;;;;;;;9.93;5.28;;;;;;;24.43;100.00;96559.50;5027641;28;20219;-82
2022/06/16 10:46:01;;;;;;;13.15;5.70;;;;;;;24.59;100.00;96560.72;5008246;28;20204;-83
2022/06/16 10:48:34;;;;;;;11.98;5.53;;;;;;;24.68;100.00;96563.56;5016358;28;20227;-83
2022/06/16 10:51:10;;;;;;;10.35;5.50;;;;;;;24.65;100.00;96553.97;5009988;28;20242;-83
2022/06/16 10:53:41;;;;;;;7.50;4.60;;;;;;;24.65;100.00;96553.97;5013372;28;20217;-83
2022/06/16 10:56:15;;;;;;;9.48;5.30;;;;;;;24.60;100.00;96548.56;5013959;28;20284;-83
2022/06/16 10:58:47;;;;;;;10.57;5.10;;;;;;;;;;4998765;28;20241;-83
2022/06/16 11:01:18;;;;;;;11.50;5.55;;;;;;;24.03;100.00;96548.28;5008462;28;20239;-83
2022/06/16 11:03:48;;;;;;;10.32;5.95;;;;;;;23.81;100.00;96556.53;5010703;28;20246;-83
2022/06/16 11:06:19;;;;;;;10.00;5.75;;;;;;;23.60;100.00;96549.81;5001771;28;20282;-82
2022/06/16 11:08:50;;;;;;;7.65;5.07;;;;;;;23.48;100.00;96563.28;5000828;28;20215;-83
2022/06/16 11:11:21;;;;;;;9.68;5.20;;;;;;;23.50;100.00;96563.78;5007984;28;20301;-82
2022/06/16 11:13:53;;;;;;;8.68;4.95;;;;;;;23.52;100.00;96567.88;5010305;28;20546;-83
2022/06/16 11:16:28;;;;;;;9.38;5.05;;;;;;;23.48;100.00;96568.78;5006670;28;20222;-83
2022/06/16 11:18:59;;;;;;;8.52;4.80;;;;;;;23.55;100.00;96571.97;5011497;28;20257;-83
2022/06/16 11:21:30;;;;;;;8.00;5.18;;;;;;;23.71;100.00;96556.75;5010648;28;20207;-83
2022/06/16 11:24:00;;;;;;;9.57;4.80;;;;;;;23.77;100.00;96556.31;5003286;28;20223;-83
2022/06/16 11:26:29;;;;;;;10.80;4.90;;;;;;;23.84;100.00;96555.88;4996463;28;20235;-83
2022/06/16 11:29:01;;;;;;;8.35;5.28;;;;;;;23.85;100.00;96552.00;5010381;28;20210;-83
2022/06/16 11:31:39;;;;;;;10.85;5.05;;;;;;;24.03;100.00;96566.78;4990601;28;20204;-83
2022/06/16 11:34:10;;;;;;;8.02;5.10;;;;;;;24.00;100.00;96554.41;5007565;28;20207;-83
2022/06/16 11:36:52;;;;;;;14.38;5.10;;;;;;;24.34;100.00;96551.16;5000918;28;20219;-83
2022/06/16 11:39:26;;;;;;;10.73;5.30;;;;;;;24.96;100.00;96548.50;5005742;28;20215;-83
2022/06/16 11:41:56;;;;;;;8.48;4.88;;;;;;;25.36;97.99;96541.00;5001127;28;20218;-83
2022/06/16 11:44:41;;;;;;;11.30;5.10;;;;;;;25.64;89.68;96536.06;5000625;28;20233;-83
2022/06/16 11:47:20;;;;;;;8.20;5.32;;;;;;;25.94;95.20;96528.81;5014099;28;20256;-83
2022/06/16 11:49:56;;;;;;;7.65;4.78;;;;;;;26.02;91.48;96533.53;4997368;28;20222;-85
2022/06/16 11:52:42;;;;;;;9.10;5.22;;;;;;;26.23;93.77;96531.72;5016953;28;20194;-84
2022/06/16 11:55:24;;;;;;;13.38;5.88;;;;;;;26.47;90.54;96528.47;5012128;28;20207;-82
2022/06/16 11:58:12;;;;;;;12.43;4.88;;;;;;;26.66;92.20;96528.94;5012771;28;20309;-84
2022/06/16 12:00:54;;;;;;;10.60;5.80;;;;;;;26.66;88.35;96533.66;5015579;28;20211;-81
2022/06/16 12:04:08;;;;;;;10.50;5.22;;;;;;;26.60;89.73;96523.91;5018872;28;20223;-83
2022/06/16 12:07:08;;;;;;;8.80;4.88;;;;;;;26.51;86.25;96526.69;4998482;28;20199;-83
2022/06/16 12:10:00;;;;;;;8.27;5.20;;;;;;;26.55;82.54;96521.31;5018773;28;20210;-83
2022/06/16 12:12:35;;;;;;;9.90;5.57;;;;;;;26.53;77.26;96531.91;5017469;28;20211;-85
2022/06/16 12:15:10;;;;;;;8.15;5.05;;;;;;;26.42;94.44;96525.91;5009329;28;20214;-85